Servia, Indiana
Current Conditions -  °F | °C
As of 5:35 PM on Tuesday 21 Oct 2014 (Local Time) from KHHG Reporting Station
Overcast Overcast  
Wind Chill: 51°   Ceiling: 4100
Heat Index: 51°   Visibility: 10mi
Dew Point: 41°   Wind: 9mph
Humidity: 67%   Direction: 360°N
Pressure: 30.12"   Gusts: NA
Location:  40.96°N, 85.74°W
Report Text: KHHG 212135Z AUTO 36008KT 10SM OVC041 11/05 A3012 RMK AO2 T01060048
Loading
Personal Weather Stations






























Interactive Weather Map
Tropical Storm Tracking
New forecast layout! Learn more

10-Day Weather Forecast

Advertisements
Track Severe Weather on mobile